Time;durP1;ratioP1;P1;durP2;ratioP2;P2;SDS_P1;SDS_P2;PMS_P1;PMS_P2;Temp;Humidity;BMP_temperature;BMP_pressure;BME280_temperature;BME280_humidity;BME280_pressure;Samples;Min_cycle;Max_cycle;Signal;HPM_P1;HPM_P2
2023/05/19 00:01:17;;;;;;;1.63;1.20;;;;;;;12.14;44.91;102538.44;4914393;28;96828;-82
2023/05/19 00:03:57;;;;;;;2.90;0.77;;;;;;;12.16;45.83;102524.94;4920590;28;97816;-81
2023/05/19 00:06:25;;;;;;;3.10;1.10;;;;;;;12.14;44.93;102528.16;4922500;28;98992;-81
2023/05/19 00:09:01;;;;;;;1.23;0.90;;;;;;;12.15;45.63;102534.44;4912182;28;97344;-82
2023/05/19 00:11:27;;;;;;;2.07;0.80;;;;;;;12.05;45.07;102528.13;4913383;28;97120;-82
2023/05/19 00:13:54;;;;;;;1.90;1.27;;;;;;;12.12;45.18;102527.09;4916882;28;99634;-81
2023/05/19 00:16:21;;;;;;;1.70;0.93;;;;;;;12.11;45.25;102533.81;4914433;28;97002;-81
2023/05/19 00:18:47;;;;;;;1.40;1.20;;;;;;;12.08;45.15;102518.19;4916045;28;97234;-83
2023/05/19 00:21:14;;;;;;;2.00;1.27;;;;;;;12.11;45.14;102545.63;4935573;28;97349;-81
2023/05/19 00:23:39;;;;;;;1.03;0.83;;;;;;;12.09;45.14;102528.75;4930707;27;99149;-81
2023/05/19 00:26:04;;;;;;;1.47;1.03;;;;;;;12.10;45.26;102521.25;4932338;28;99172;-82
2023/05/19 00:28:30;;;;;;;0.97;0.87;;;;;;;12.10;45.26;102527.50;4913885;28;97158;-82
2023/05/19 00:30:55;;;;;;;2.83;1.00;;;;;;;12.10;45.33;102566.16;4914160;28;97456;-81
2023/05/19 00:33:20;;;;;;;2.37;1.23;;;;;;;12.11;45.30;102531.03;4916747;28;98843;-82
2023/05/19 00:35:46;;;;;;;2.13;0.97;;;;;;;12.09;45.34;102526.00;4927629;28;97488;-82
2023/05/19 00:38:11;;;;;;;3.27;1.10;;;;;;;12.08;45.41;102516.16;4922605;28;97493;-82
2023/05/19 00:40:36;;;;;;;2.40;1.00;;;;;;;12.06;45.49;102515.84;4912512;28;97149;-82
2023/05/19 00:43:04;;;;;;;1.60;1.17;;;;;;;12.06;45.37;102537.94;4914404;28;97606;-82
2023/05/19 00:45:29;;;;;;;4.43;1.30;;;;;;;12.04;45.49;102518.31;4920811;28;99487;-82
2023/05/19 00:47:55;;;;;;;1.90;1.50;;;;;;;12.02;45.45;102527.06;4912636;28;97592;-82
2023/05/19 00:50:22;;;;;;;3.70;1.33;;;;;;;12.02;45.41;102549.13;4920588;28;97086;-81
2023/05/19 00:52:48;;;;;;;1.53;1.37;;;;;;;12.06;45.53;102520.63;4915435;28;98718;-81
2023/05/19 00:55:14;;;;;;;1.23;1.00;;;;;;;12.03;45.42;102511.28;4911735;28;97767;-82
2023/05/19 00:57:39;;;;;;;2.67;0.90;;;;;;;12.03;45.87;102514.78;4941173;28;97108;-82
2023/05/19 01:00:06;;;;;;;4.27;1.43;;;;;;;12.01;45.76;102520.00;4914802;28;98473;-82
2023/05/19 01:02:31;;;;;;;2.07;1.10;;;;;;;12.06;45.67;102523.41;4912613;28;100799;-81
2023/05/19 01:04:58;;;;;;;1.10;1.00;;;;;;;12.02;45.90;102515.25;4918692;28;97820;-82
2023/05/19 01:07:24;;;;;;;2.10;1.30;;;;;;;11.95;45.91;102504.50;4917200;28;97890;-82
2023/05/19 01:09:50;;;;;;;2.70;1.40;;;;;;;11.98;46.04;102506.34;4920474;28;97764;-82
2023/05/19 01:12:16;;;;;;;2.63;1.40;;;;;;;11.92;46.12;102508.19;4942815;28;100741;-82
2023/05/19 01:14:41;;;;;;;4.60;1.20;;;;;;;11.89;46.21;102518.13;4912885;28;97621;-82
2023/05/19 01:17:28;;;;;;;8.00;1.47;;;;;;;11.88;46.60;102504.81;4935918;28;97428;-82
2023/05/19 01:20:01;;;;;;;1.50;1.17;;;;;;;11.88;46.86;102522.09;4915176;28;97067;-81
2023/05/19 01:23:04;;;;;;;4.63;1.43;;;;;;;11.93;47.26;102507.72;4918747;28;98223;-82
2023/05/19 01:25:44;;;;;;;5.40;1.53;;;;;;;11.87;46.86;102498.53;4921829;28;100760;-82
2023/05/19 01:28:46;;;;;;;2.27;1.17;;;;;;;11.88;47.68;102499.28;4914233;28;96930;-82
2023/05/19 01:31:14;;;;;;;1.63;1.03;;;;;;;11.86;46.37;102496.97;4914033;28;97845;-82
2023/05/19 01:33:42;;;;;;;4.47;1.40;;;;;;;11.84;46.24;102493.13;4917317;28;99351;-81
2023/05/19 01:36:11;;;;;;;1.23;1.10;;;;;;;11.87;46.47;102497.75;4914106;28;97351;-82
2023/05/19 01:38:37;;;;;;;1.73;1.17;;;;;;;11.85;46.55;102500.97;4924229;28;97525;-81
2023/05/19 01:41:05;;;;;;;4.27;1.60;;;;;;;11.83;46.45;102519.19;4919059;28;97157;-81
2023/05/19 01:43:32;;;;;;;2.73;1.50;;;;;;;11.78;46.53;102500.47;4912345;28;97884;-81
2023/05/19 01:45:58;;;;;;;1.40;1.20;;;;;;;11.77;46.75;102505.22;4916587;28;99733;-81
2023/05/19 01:48:25;;;;;;;1.67;1.23;;;;;;;11.73;46.75;102507.34;4914009;28;97104;-81
2023/05/19 01:50:51;;;;;;;2.37;1.60;;;;;;;11.73;46.83;102514.88;4917350;28;97194;-81
2023/05/19 01:53:16;;;;;;;4.23;1.30;;;;;;;11.71;46.82;102526.34;4924598;28;100993;-81
2023/05/19 01:55:48;;;;;;;2.13;1.40;;;;;;;11.72;47.27;102508.59;4924079;28;99517;-81
2023/05/19 01:58:21;;;;;;;3.03;1.47;;;;;;;11.70;46.92;102515.78;4936582;28;96743;-81
2023/05/19 02:01:01;;;;;;;3.90;1.60;;;;;;;11.61;47.66;102527.50;4928848;27;96729;-81
2023/05/19 02:03:41;;;;;;;1.30;1.20;;;;;;;11.63;47.32;102514.03;4912593;28;99215;-82
2023/05/19 02:06:25;;;;;;;2.57;1.20;;;;;;;11.65;48.30;102516.34;4937196;28;100478;-82
2023/05/19 02:09:01;;;;;;;3.20;1.70;;;;;;;11.65;47.46;102519.09;4915545;28;98420;-81
2023/05/19 02:11:35;;;;;;;3.20;1.90;;;;;;;11.59;47.56;102524.44;4914817;28;97284;-82
2023/05/19 02:14:07;;;;;;;2.30;1.20;;;;;;;11.60;47.09;102503.91;4913330;28;97959;-81
2023/05/19 02:16:34;;;;;;;1.67;1.17;;;;;;;11.56;47.25;102511.56;4912435;28;97574;-82
2023/05/19 02:18:59;;;;;;;1.50;1.20;;;;;;;11.50;47.24;102518.88;4914784;28;97236;-82
2023/05/19 02:21:25;;;;;;;2.97;1.97;;;;;;;11.46;47.20;102507.25;4914578;28;97334;-82
2023/05/19 02:23:50;;;;;;;2.93;1.87;;;;;;;11.47;47.38;102519.78;4911217;28;98889;-82
2023/05/19 02:26:16;;;;;;;1.83;1.50;;;;;;;11.45;47.57;102530.50;4920758;28;96837;-82
2023/05/19 02:28:41;;;;;;;1.50;1.37;;;;;;;11.49;47.51;102511.09;4920055;28;97073;-82
2023/05/19 02:31:08;;;;;;;3.60;1.20;;;;;;;11.46;47.46;102498.19;4933572;28;97106;-82
2023/05/19 02:33:35;;;;;;;1.50;1.40;;;;;;;11.43;47.48;102502.63;4914179;28;96924;-82
2023/05/19 02:36:00;;;;;;;2.77;1.60;;;;;;;11.36;47.67;102491.88;4916105;28;98595;-82
2023/05/19 02:38:26;;;;;;;2.60;1.80;;;;;;;11.38;47.68;102500.44;4913693;28;97532;-82
2023/05/19 02:40:51;;;;;;;2.73;1.33;;;;;;;11.33;47.73;102488.03;4937168;28;97274;-82
2023/05/19 02:43:17;;;;;;;3.67;1.87;;;;;;;11.34;47.76;102532.88;4914978;28;98431;-82
2023/05/19 02:45:42;;;;;;;7.90;1.60;;;;;;;11.34;47.84;102508.09;4912386;28;99353;-82
2023/05/19 02:48:08;;;;;;;3.43;1.53;;;;;;;11.29;48.06;102486.66;4917771;28;96768;-82
2023/05/19 02:50:33;;;;;;;2.80;1.47;;;;;;;11.32;47.94;102483.75;4911168;28;97187;-82
2023/05/19 02:52:59;;;;;;;2.97;1.30;;;;;;;11.34;48.01;102497.06;4913436;28;98022;-81
2023/05/19 02:55:24;;;;;;;6.73;1.63;;;;;;;11.33;48.00;102506.56;4933195;28;99143;-82
2023/05/19 02:57:50;;;;;;;2.30;1.50;;;;;;;11.31;48.04;102497.97;4920307;28;97571;-82
2023/05/19 03:00:15;;;;;;;1.93;1.10;;;;;;;11.27;47.98;102502.84;4913693;28;97912;-82
2023/05/19 03:02:42;;;;;;;1.70;1.37;;;;;;;11.25;48.02;102491.50;4911655;28;98820;-81
2023/05/19 03:05:09;;;;;;;3.23;1.63;;;;;;;11.22;47.99;102476.66;4910771;28;97427;-82
2023/05/19 03:07:34;;;;;;;2.30;1.50;;;;;;;11.22;48.12;102492.44;4911752;28;97575;-82
2023/05/19 03:10:02;;;;;;;4.40;1.67;;;;;;;11.17;48.16;102479.22;4912547;28;97452;-81
2023/05/19 03:12:28;;;;;;;1.90;1.70;;;;;;;11.15;48.10;102482.44;4920534;28;97698;-82
2023/05/19 03:14:53;;;;;;;2.83;1.40;;;;;;;11.13;48.06;102489.63;4913046;28;97339;-82
2023/05/19 03:17:19;;;;;;;2.10;1.33;;;;;;;11.11;48.03;102503.84;4911869;28;97154;-83
2023/05/19 03:19:44;;;;;;;1.93;1.17;;;;;;;11.08;48.13;102512.22;4915442;28;97544;-83
2023/05/19 03:22:09;;;;;;;1.90;1.23;;;;;;;11.01;48.39;102487.69;4911987;28;97848;-82
2023/05/19 03:24:35;;;;;;;2.47;1.67;;;;;;;10.95;48.25;102481.25;4909023;28;98945;-82
2023/05/19 03:27:01;;;;;;;2.13;1.40;;;;;;;10.86;48.56;102473.69;4917534;28;97253;-82
2023/05/19 03:29:26;;;;;;;2.00;1.50;;;;;;;10.81;48.59;102501.06;4911095;28;96886;-81
2023/05/19 03:31:52;;;;;;;3.33;1.57;;;;;;;10.76;48.56;102476.84;4911677;28;98090;-82
2023/05/19 03:34:17;;;;;;;2.73;1.40;;;;;;;10.68;48.72;102492.84;4915175;28;97776;-82
2023/05/19 03:36:43;;;;;;;3.50;1.57;;;;;;;10.73;48.69;102480.50;4912553;28;97025;-81
2023/05/19 03:39:09;;;;;;;6.10;1.60;;;;;;;10.66;48.72;102489.78;4916850;28;97105;-82
2023/05/19 03:41:35;;;;;;;3.80;1.30;;;;;;;10.70;48.84;102482.19;4912410;28;97185;-82
2023/05/19 03:44:00;;;;;;;3.80;1.70;;;;;;;10.67;48.85;102487.78;4919124;28;98722;-82
2023/05/19 03:46:26;;;;;;;2.10;1.40;;;;;;;10.71;48.88;102502.19;4925145;28;97422;-82
2023/05/19 03:48:51;;;;;;;1.97;1.50;;;;;;;10.67;48.91;102480.31;4919300;28;97383;-82
2023/05/19 03:51:16;;;;;;;7.20;1.83;;;;;;;10.63;48.92;102509.94;4912012;28;98629;-81
2023/05/19 03:53:42;;;;;;;2.23;1.30;;;;;;;10.69;48.92;102483.38;4913335;28;102025;-82
2023/05/19 03:56:10;;;;;;;5.47;1.80;;;;;;;10.70;49.01;102495.94;4913340;28;97325;-82
2023/05/19 03:58:38;;;;;;;3.63;1.53;;;;;;;10.72;48.92;102482.50;4920513;28;96932;-81
2023/05/19 04:01:03;;;;;;;4.03;1.30;;;;;;;10.75;49.08;102497.31;4912707;28;99630;-82
2023/05/19 04:03:28;;;;;;;2.60;1.50;;;;;;;10.76;48.97;102477.63;4912400;28;97887;-81
2023/05/19 04:05:54;;;;;;;1.70;1.27;;;;;;;10.78;49.07;102499.97;4909784;28;97040;-82
2023/05/19 04:08:19;;;;;;;4.17;1.70;;;;;;;10.85;49.06;102501.69;4918366;28;97042;-81
2023/05/19 04:10:45;;;;;;;4.43;2.27;;;;;;;10.88;49.05;102496.03;4922949;28;99724;-81
2023/05/19 04:13:10;;;;;;;2.60;1.70;;;;;;;10.86;49.14;102509.50;4923940;28;100228;-80
2023/05/19 04:15:36;;;;;;;5.33;1.80;;;;;;;10.85;49.23;102498.94;4928918;28;97479;-81
2023/05/19 04:18:01;;;;;;;2.60;1.87;;;;;;;10.86;49.21;102494.94;4918095;28;97538;-81
2023/05/19 04:20:26;;;;;;;4.10;1.70;;;;;;;10.89;49.41;102500.34;4915944;28;100156;-82
2023/05/19 04:22:52;;;;;;;2.43;1.60;;;;;;;10.96;49.20;102491.06;4912605;28;98775;-82
2023/05/19 04:25:18;;;;;;;3.43;1.53;;;;;;;10.99;49.31;102507.44;4917898;28;97257;-82
2023/05/19 04:27:44;;;;;;;9.70;1.57;;;;;;;10.99;49.18;102493.66;4912304;28;96909;-81
2023/05/19 04:30:10;;;;;;;2.23;1.27;;;;;;;11.00;49.40;102500.72;4925274;28;96868;-81
2023/05/19 04:32:36;;;;;;;7.13;1.80;;;;;;;11.07;49.41;102508.72;4915052;28;98513;-82
2023/05/19 04:35:02;;;;;;;5.60;1.43;;;;;;;11.04;49.41;102519.88;4917011;28;97403;-81
2023/05/19 04:37:28;;;;;;;1.63;1.40;;;;;;;11.07;49.50;102516.22;4918535;28;97115;-81
2023/05/19 04:39:54;;;;;;;5.37;2.27;;;;;;;11.09;49.38;102508.28;4916335;28;98582;-82
2023/05/19 04:42:19;;;;;;;2.30;1.30;;;;;;;11.12;49.33;102504.59;4918534;28;99389;-82
2023/05/19 04:44:47;;;;;;;4.30;1.70;;;;;;;11.12;49.57;102515.63;4920841;28;97432;-82
2023/05/19 04:47:14;;;;;;;1.60;1.23;;;;;;;11.16;49.53;102508.00;4919701;28;97074;-82
2023/05/19 04:49:39;;;;;;;5.40;1.70;;;;;;;11.16;49.54;102505.25;4914706;28;99599;-82
2023/05/19 04:52:06;;;;;;;1.40;1.30;;;;;;;11.12;49.61;102488.06;4918795;28;98544;-81
2023/05/19 04:54:35;;;;;;;2.50;1.50;;;;;;;11.16;49.58;102495.00;4915367;28;97107;-81
2023/05/19 04:57:01;;;;;;;3.33;1.80;;;;;;;11.20;49.56;102517.66;4920083;28;96994;-81
2023/05/19 04:59:26;;;;;;;2.53;1.60;;;;;;;11.18;49.97;102498.06;4921459;28;99579;-82
2023/05/19 05:01:51;;;;;;;1.73;1.30;;;;;;;11.22;49.68;102503.44;4920348;28;97316;-82
2023/05/19 05:04:17;;;;;;;2.50;1.80;;;;;;;11.25;49.77;102502.53;4914398;28;96874;-81
2023/05/19 05:06:46;;;;;;;2.47;1.90;;;;;;;11.26;50.06;102506.84;4915103;28;97016;-81
2023/05/19 05:09:13;;;;;;;1.80;1.30;;;;;;;11.29;49.90;102511.44;4925244;28;99238;-82
2023/05/19 05:11:39;;;;;;;2.80;1.23;;;;;;;11.24;50.08;102567.13;4912738;28;97918;-82
2023/05/19 05:14:04;;;;;;;2.57;1.50;;;;;;;11.40;50.03;102502.78;4912489;28;97314;-82
2023/05/19 05:16:30;;;;;;;2.37;1.80;;;;;;;11.43;50.15;102508.13;4917677;28;96639;-82
2023/05/19 05:18:56;;;;;;;3.33;1.77;;;;;;;11.47;50.09;102536.31;4918067;28;100259;-81
2023/05/19 05:21:22;;;;;;;1.53;1.30;;;;;;;11.51;50.07;102497.59;4911024;28;97145;-82
2023/05/19 05:23:50;;;;;;;1.77;1.30;;;;;;;11.55;49.92;102526.56;4914425;28;96653;-81
2023/05/19 05:26:21;;;;;;;2.70;1.30;;;;;;;11.59;50.41;102504.38;4917875;28;97493;-83
2023/05/19 05:28:48;;;;;;;3.73;1.60;;;;;;;11.65;50.00;102508.06;4914448;28;98647;-82
2023/05/19 05:31:13;;;;;;;3.43;1.40;;;;;;;11.69;50.12;102508.72;4923625;28;97988;-82
2023/05/19 05:33:39;;;;;;;2.50;1.20;;;;;;;11.73;50.19;102504.59;4919526;28;96671;-82
2023/05/19 05:36:05;;;;;;;4.57;1.90;;;;;;;11.74;50.38;102488.81;4920309;28;96946;-82
2023/05/19 05:38:30;;;;;;;1.77;1.50;;;;;;;11.78;50.34;102498.50;4908726;28;99830;-82
2023/05/19 05:40:55;;;;;;;5.17;1.80;;;;;;;11.82;50.33;102501.88;4912282;28;97617;-82
2023/05/19 05:43:21;;;;;;;1.77;1.30;;;;;;;11.89;50.36;102493.31;4912955;28;97664;-81
2023/05/19 05:45:46;;;;;;;2.30;1.20;;;;;;;11.98;50.38;102504.38;4916909;28;97295;-82
2023/05/19 05:48:12;;;;;;;3.47;1.80;;;;;;;12.04;50.50;102501.75;4923180;28;97855;-82
2023/05/19 05:50:37;;;;;;;4.60;1.40;;;;;;;12.10;50.44;102497.16;4910540;28;98967;-82
2023/05/19 05:53:05;;;;;;;5.13;1.80;;;;;;;12.10;50.61;102486.13;4914673;28;96897;-82
2023/05/19 05:55:31;;;;;;;1.57;1.33;;;;;;;12.28;50.48;102494.44;4916922;28;96972;-84
2023/05/19 05:57:57;;;;;;;5.30;1.37;;;;;;;12.35;50.64;102515.44;4915448;28;99997;-82
2023/05/19 06:00:23;;;;;;;2.90;1.30;;;;;;;12.51;50.38;102498.59;4915345;28;98462;-83
2023/05/19 06:02:50;;;;;;;9.00;1.80;;;;;;;12.62;50.41;102494.13;4917976;28;97786;-83
2023/05/19 06:05:15;;;;;;;5.13;1.13;;;;;;;12.70;50.51;102520.22;4918544;28;97570;-82
2023/05/19 06:07:41;;;;;;;2.20;1.47;;;;;;;12.83;50.59;102495.19;4923949;28;100631;-81
2023/05/19 06:10:07;;;;;;;3.10;1.10;;;;;;;12.89;50.47;102482.25;4921561;28;97480;-82
2023/05/19 06:12:34;;;;;;;1.27;1.03;;;;;;;13.07;50.46;102492.53;4914656;28;96732;-82
2023/05/19 06:15:00;;;;;;;4.57;1.63;;;;;;;13.17;50.30;102499.59;4915482;28;97047;-82
2023/05/19 06:17:25;;;;;;;8.70;1.50;;;;;;;13.24;50.46;102491.72;4914149;28;98787;-82
2023/05/19 06:19:51;;;;;;;3.93;1.40;;;;;;;13.42;50.30;102516.53;4920354;28;97307;-81
2023/05/19 06:22:16;;;;;;;1.30;1.10;;;;;;;13.52;50.27;102509.75;4918589;28;97538;-83
2023/05/19 06:24:41;;;;;;;4.47;1.60;;;;;;;13.66;50.14;102504.75;4916378;28;97424;-81
2023/05/19 06:27:07;;;;;;;2.87;1.13;;;;;;;13.78;49.98;102498.25;4913520;28;97593;-82
2023/05/19 06:29:32;;;;;;;7.10;1.70;;;;;;;13.87;50.13;102498.94;4915766;28;103145;-82
2023/05/19 06:31:58;;;;;;;1.70;1.20;;;;;;;13.90;49.86;102500.03;4923404;28;97096;-81
2023/05/19 06:34:23;;;;;;;2.33;1.20;;;;;;;14.01;49.94;102497.50;4919423;28;97288;-82
2023/05/19 06:36:48;;;;;;;2.10;1.30;;;;;;;14.09;49.88;102495.88;4914905;28;97003;-82
2023/05/19 06:39:14;;;;;;;4.30;1.23;;;;;;;14.20;49.47;102498.88;4915898;28;108462;-82
2023/05/19 06:41:39;;;;;;;1.10;0.97;;;;;;;14.27;49.31;102501.31;4913170;28;97606;-82
2023/05/19 06:44:06;;;;;;;1.67;1.10;;;;;;;14.40;49.26;102490.00;4915301;28;97188;-82
2023/05/19 06:46:31;;;;;;;3.13;1.30;;;;;;;14.50;49.19;102495.00;4911304;28;97295;-80
2023/05/19 06:48:56;;;;;;;3.67;1.10;;;;;;;14.61;49.08;102497.22;4915820;28;98249;-82
2023/05/19 06:51:22;;;;;;;2.20;1.20;;;;;;;14.70;49.07;102527.63;4920690;28;97422;-82
2023/05/19 06:53:48;;;;;;;5.40;1.13;;;;;;;14.78;48.81;102507.38;4914235;28;100617;-82
2023/05/19 06:56:14;;;;;;;3.80;1.20;;;;;;;14.86;49.14;102513.28;4911791;28;98039;-81
2023/05/19 06:58:40;;;;;;;3.27;1.30;;;;;;;14.94;49.02;102504.13;4916934;28;97557;-82
2023/05/19 07:01:05;;;;;;;6.77;1.10;;;;;;;15.05;48.71;102524.97;4914742;27;97563;-82
2023/05/19 07:03:31;;;;;;;1.40;0.80;;;;;;;15.16;48.73;102503.72;4912159;28;97461;-82
2023/05/19 07:05:56;;;;;;;4.40;1.27;;;;;;;15.26;48.45;102498.84;4923170;28;99965;-81
2023/05/19 07:08:22;;;;;;;3.70;1.27;;;;;;;15.34;48.29;102502.75;4914734;28;98749;-82
2023/05/19 07:10:47;;;;;;;1.97;1.13;;;;;;;15.40;48.08;102509.16;4911628;28;97609;-82
2023/05/19 07:13:12;;;;;;;1.83;0.87;;;;;;;15.50;48.19;102513.38;4936058;28;97125;-81
2023/05/19 07:15:37;;;;;;;1.93;1.27;;;;;;;15.59;47.95;102518.81;4912086;28;98971;-83
2023/05/19 07:18:03;;;;;;;2.77;1.00;;;;;;;15.63;47.79;102513.84;4909911;28;97705;-83
2023/05/19 07:20:28;;;;;;;3.20;1.30;;;;;;;15.66;47.95;102513.63;4934652;27;98245;-83
2023/05/19 07:22:54;;;;;;;2.50;1.00;;;;;;;15.71;47.75;102501.84;4914989;28;96887;-82
2023/05/19 07:25:19;;;;;;;0.83;0.83;;;;;;;15.83;47.59;102505.56;4915515;28;99291;-82
2023/05/19 07:27:45;;;;;;;2.70;1.27;;;;;;;15.93;47.32;102503.38;4916844;28;100415;-82
2023/05/19 07:30:11;;;;;;;1.73;0.90;;;;;;;15.93;47.32;102495.84;4911299;28;97616;-79
2023/05/19 07:32:36;;;;;;;4.53;1.30;;;;;;;15.99;47.40;102502.22;4912602;28;97333;-82
2023/05/19 07:35:02;;;;;;;2.37;1.30;;;;;;;16.04;47.29;102490.44;4922483;28;107390;-81
2023/05/19 07:37:27;;;;;;;3.37;1.20;;;;;;;16.10;47.23;102484.94;4923854;28;97801;-82
2023/05/19 07:39:52;;;;;;;1.83;0.80;;;;;;;16.08;47.16;102490.22;4920253;28;97475;-83
2023/05/19 07:42:18;;;;;;;1.93;1.17;;;;;;;16.07;47.04;102486.69;4910230;28;97196;-82
2023/05/19 07:44:43;;;;;;;4.53;1.00;;;;;;;16.11;47.00;102495.56;4911684;28;97743;-83
2023/05/19 07:47:08;;;;;;;1.30;0.90;;;;;;;16.13;46.67;102498.63;4912848;28;97347;-82
2023/05/19 07:49:34;;;;;;;2.00;0.90;;;;;;;16.15;46.75;102489.78;4913857;28;98172;-83
2023/05/19 07:52:00;;;;;;;1.87;0.93;;;;;;;16.21;46.58;102487.84;4910450;28;97576;-82
2023/05/19 07:54:25;;;;;;;2.30;1.10;;;;;;;16.33;46.69;102484.72;4911684;28;100296;-83
2023/05/19 07:56:51;;;;;;;1.37;1.17;;;;;;;16.41;46.23;102491.38;4908785;28;98604;-82
2023/05/19 07:59:16;;;;;;;1.50;0.90;;;;;;;16.36;46.08;102483.72;4914252;28;97075;-82
2023/05/19 08:01:41;;;;;;;1.13;1.03;;;;;;;16.51;46.10;102486.47;4909301;28;97457;-82
2023/05/19 08:04:07;;;;;;;1.40;0.80;;;;;;;16.56;46.01;102479.41;4918627;28;101318;-82
2023/05/19 08:06:32;;;;;;;0.90;0.80;;;;;;;16.68;45.96;102481.84;4911596;28;98774;-83
2023/05/19 08:08:58;;;;;;;1.73;0.90;;;;;;;16.82;45.96;102486.50;4913511;28;100963;-83
2023/05/19 08:11:23;;;;;;;1.40;1.00;;;;;;;16.96;45.69;102490.44;4913836;28;97344;-83
2023/05/19 08:13:48;;;;;;;2.07;0.87;;;;;;;17.06;45.69;102489.75;4915416;28;99305;-82
2023/05/19 08:16:17;;;;;;;3.97;0.93;;;;;;;17.14;45.31;102490.09;4913154;28;98621;-81
2023/05/19 08:18:42;;;;;;;1.40;1.30;;;;;;;17.20;45.62;102494.44;4921596;28;97189;-81
2023/05/19 08:21:08;;;;;;;2.00;0.93;;;;;;;17.20;45.28;102494.44;4918367;28;96851;-82
2023/05/19 08:23:33;;;;;;;3.00;1.03;;;;;;;17.17;45.24;102489.84;4920494;28;100843;-82
2023/05/19 08:25:59;;;;;;;2.10;0.90;;;;;;;17.16;45.20;102488.34;4915839;28;97082;-82
2023/05/19 08:28:24;;;;;;;2.00;1.00;;;;;;;17.15;45.19;102475.69;4911048;28;97164;-83
2023/05/19 08:30:51;;;;;;;1.87;0.93;;;;;;;17.21;45.08;102495.22;4912843;28;97596;-82
2023/05/19 08:33:16;;;;;;;1.30;0.97;;;;;;;17.19;45.31;102469.88;4921462;28;100636;-82
2023/05/19 08:35:42;;;;;;;1.67;1.17;;;;;;;17.28;45.34;102482.88;4915413;28;97164;-83
2023/05/19 08:38:07;;;;;;;3.97;1.03;;;;;;;17.43;45.35;102461.97;4943290;28;97229;-83
2023/05/19 08:40:36;;;;;;;2.30;1.37;;;;;;;17.62;45.07;102474.28;4915135;28;96933;-82
2023/05/19 08:43:02;;;;;;;2.97;0.80;;;;;;;17.75;44.83;102477.38;4916000;28;97827;-81
2023/05/19 08:45:28;;;;;;;1.97;1.20;;;;;;;17.88;44.80;102463.00;4919622;28;99085;-82
2023/05/19 08:47:54;;;;;;;2.13;1.40;;;;;;;18.17;44.74;102461.88;4927917;28;97195;-82
2023/05/19 08:50:29;;;;;;;2.30;1.20;;;;;;;18.47;44.47;102460.97;4916337;28;97399;-80
2023/05/19 08:53:12;;;;;;;2.30;1.03;;;;;;;18.77;44.23;102455.66;4917387;28;97251;-82
2023/05/19 08:55:57;;;;;;;2.90;1.23;;;;;;;18.99;43.57;102452.91;4918245;28;98290;-81
2023/05/19 08:58:23;;;;;;;2.23;0.90;;;;;;;19.14;43.65;102450.59;4916799;28;96701;-82
2023/05/19 09:00:49;;;;;;;3.00;1.30;;;;;;;19.22;43.41;102448.81;4915760;28;96910;-81
2023/05/19 09:03:16;;;;;;;1.87;1.50;;;;;;;19.36;43.22;102428.28;4921567;28;100863;-81
2023/05/19 09:05:42;;;;;;;3.27;1.37;;;;;;;19.55;43.14;102445.22;4914519;28;97454;-82
2023/05/19 09:08:07;;;;;;;2.90;1.47;;;;;;;19.67;42.91;102426.41;4921682;28;97595;-82
2023/05/19 09:10:32;;;;;;;3.30;1.30;;;;;;;19.77;42.69;102438.78;4918279;28;97153;-83
2023/05/19 09:12:58;;;;;;;2.60;1.00;;;;;;;19.91;42.79;102438.50;4916323;28;97477;-82
2023/05/19 09:15:27;;;;;;;4.00;1.20;;;;;;;20.05;42.22;102431.81;4917048;28;103559;-82
2023/05/19 09:18:06;;;;;;;0.90;0.80;;;;;;;20.12;41.28;102442.47;4913768;28;97625;-83
2023/05/19 09:20:35;;;;;;;2.47;1.10;;;;;;;20.27;41.92;102442.16;4920165;28;97022;-81
2023/05/19 09:23:00;;;;;;;0.80;0.80;;;;;;;20.46;41.79;102440.28;4917474;28;98452;-83
2023/05/19 09:25:25;;;;;;;1.00;0.87;;;;;;;20.52;40.79;102420.66;4925888;28;107386;-82
2023/05/19 09:27:53;;;;;;;2.33;1.00;;;;;;;20.67;41.22;102435.78;4944488;28;99612;-83
2023/05/19 09:30:19;;;;;;;1.20;1.10;;;;;;;20.94;40.79;102425.66;4926178;28;96922;-80
2023/05/19 09:32:45;;;;;;;1.73;1.00;;;;;;;21.15;40.43;102429.56;4934404;28;97904;-84
2023/05/19 09:35:16;;;;;;;1.60;0.90;;;;;;;21.36;39.85;102413.81;4938755;28;97509;-84
2023/05/19 09:37:42;;;;;;;0.80;0.70;;;;;;;21.40;39.82;102428.28;4950393;28;96728;-83
2023/05/19 09:40:08;;;;;;;1.97;1.00;;;;;;;21.47;39.93;102410.13;4949887;28;96603;-82
2023/05/19 09:42:37;;;;;;;2.20;0.97;;;;;;;21.55;39.81;102422.25;4937450;28;97341;-82
2023/05/19 09:45:03;;;;;;;1.10;0.70;;;;;;;21.61;39.18;102406.16;4915893;28;97826;-83
2023/05/19 09:47:40;;;;;;;2.33;0.80;;;;;;;21.58;37.95;102410.75;4915983;28;96988;-82
2023/05/19 09:50:07;;;;;;;2.13;0.90;;;;;;;21.73;38.87;102410.34;4915224;28;97243;-82
2023/05/19 09:52:34;;;;;;;1.07;0.80;;;;;;;21.80;38.42;102404.13;4924658;28;99234;-83
2023/05/19 09:55:02;;;;;;;1.20;0.70;;;;;;;21.86;38.33;102395.69;4920800;28;97448;-83
2023/05/19 09:57:34;;;;;;;1.60;0.97;;;;;;;21.93;37.69;102392.28;4920861;28;99824;-82
2023/05/19 10:00:07;;;;;;;1.13;0.67;;;;;;;22.07;38.13;102402.25;4943797;28;96601;-81
2023/05/19 10:02:32;;;;;;;1.10;0.70;;;;;;;22.21;38.04;102407.41;4921346;28;97945;-83
2023/05/19 10:05:00;;;;;;;1.17;1.00;;;;;;;22.17;37.53;102412.56;4920829;28;99314;-84
2023/05/19 10:07:26;;;;;;;1.23;0.70;;;;;;;22.04;37.54;102397.75;4932168;28;97398;-84
2023/05/19 10:09:53;;;;;;;1.20;0.73;;;;;;;22.04;37.89;102392.13;4923198;28;97218;-82
2023/05/19 10:12:19;;;;;;;1.90;0.80;;;;;;;21.97;37.51;102387.13;4923035;28;99514;-81
2023/05/19 10:14:46;;;;;;;1.43;0.60;;;;;;;21.91;37.58;102394.84;4911048;28;97299;-83
2023/05/19 10:17:13;;;;;;;0.97;0.77;;;;;;;21.81;37.40;102400.03;4917366;28;97172;-83
2023/05/19 10:19:39;;;;;;;1.73;1.00;;;;;;;21.76;37.81;102395.25;4915310;28;97366;-83
2023/05/19 10:22:04;;;;;;;0.97;0.87;;;;;;;22.00;37.71;102381.19;4918142;28;97811;-82
2023/05/19 10:24:30;;;;;;;4.83;0.90;;;;;;;22.15;37.30;102372.31;4913885;28;100249;-83
2023/05/19 10:27:10;;;;;;;1.60;1.03;;;;;;;21.99;36.59;102356.50;4921651;28;97192;-84
2023/05/19 10:29:40;;;;;;;1.47;1.00;;;;;;;21.90;37.47;102368.09;4915959;28;96862;-83
2023/05/19 10:32:10;;;;;;;1.70;0.80;;;;;;;21.96;37.23;102375.16;4936946;28;99237;-84
2023/05/19 10:35:09;;;;;;;2.20;0.70;;;;;;;22.03;35.96;102373.78;4920796;28;96964;-82
2023/05/19 10:37:41;;;;;;;0.90;0.60;;;;;;;22.11;37.08;102367.03;4940169;27;96912;-82
2023/05/19 10:40:12;;;;;;;0.97;0.90;;;;;;;22.11;36.93;102369.06;4922553;28;97002;-83
2023/05/19 10:43:01;;;;;;;1.00;0.60;;;;;;;22.06;35.89;102367.13;4911986;28;97556;-84
2023/05/19 10:45:30;;;;;;;1.30;0.83;;;;;;;21.95;36.74;102370.81;4918365;28;99076;-83
2023/05/19 10:47:55;;;;;;;1.63;0.90;;;;;;;21.95;36.70;102356.81;4913090;28;97299;-84
2023/05/19 10:50:20;;;;;;;1.00;0.70;;;;;;;22.10;36.50;102368.34;4913870;28;97549;-84
2023/05/19 10:52:54;;;;;;;1.10;0.70;;;;;;;22.23;34.37;102350.81;4918812;28;99461;-82
2023/05/19 10:55:54;;;;;;;1.20;0.80;;;;;;;22.19;35.03;102342.69;4920867;28;100966;-83
2023/05/19 10:58:39;;;;;;;1.00;0.90;;;;;;;22.12;34.85;102345.38;4916715;28;97162;-84
2023/05/19 11:01:15;;;;;;;1.00;0.67;;;;;;;21.99;34.03;102354.47;4912877;28;96951;-85
2023/05/19 11:03:48;;;;;;;1.23;0.70;;;;;;;21.79;35.18;102352.19;4910633;28;99778;-83
2023/05/19 11:06:29;;;;;;;1.17;0.70;;;;;;;21.61;33.97;102358.50;4912546;28;100242;-83
2023/05/19 11:08:56;;;;;;;1.60;0.90;;;;;;;21.50;36.08;102353.06;4918137;28;97543;-83
2023/05/19 11:11:22;;;;;;;1.70;0.90;;;;;;;21.60;36.33;102360.56;4911488;28;97045;-83
2023/05/19 11:13:54;;;;;;;1.27;0.70;;;;;;;21.71;35.57;102353.31;4912907;28;97616;-83
2023/05/19 11:16:31;;;;;;;1.00;0.90;;;;;;;21.73;35.22;102371.13;4913977;28;96921;-82
2023/05/19 11:18:59;;;;;;;2.50;1.07;;;;;;;21.79;35.26;102352.19;4912515;28;97475;-83
2023/05/19 11:21:40;;;;;;;3.37;1.10;;;;;;;21.77;32.24;102351.19;4911980;28;96828;-81
2023/05/19 11:24:09;;;;;;;1.73;0.83;;;;;;;21.69;34.69;102350.28;4912374;28;99604;-84
2023/05/19 11:26:42;;;;;;;1.53;0.90;;;;;;;21.77;34.68;102337.19;4913820;28;100670;-84